^^
Station Historical Data
Daily Summary for May 2, 2017 Units:  English    Metric   Both
« Previous Day
Next Day »
Daily Weekly Monthly Yearly Custom
  High: Low: Average:
Temperature: 73.8 °F 59.8 °F 65.6 °F
Dew Point: 63.4 °F 36.7 °F 49.3 °F
Humidity: 93 % 36 % 59 %
Wind Speed: 19.7 mph 0.0 mph 5.3 mph
Wind Gust: 34.5 mph - -
Wind:- - WSW
Pressure: 29.80 in 29.57 in -
Precipitation: 0.18 in    
Historical Graphs
 
 
Tabular Data for May 2, 2017
Time Temperature Dew Point Pressure Wind Wind Speed Wind Gust Humidity Rainfall Rate (Hourly) solar Conditions
00:03 71.7 °F 63.0 °F 29.58 in SSW 2.4 mph 4.6 mph 74 % 0.01 in 0.0 W/m2 RA
00:08 71.7 °F 63.0 °F 29.58 in SSW 3.7 mph 4.6 mph 74 % 0.01 in 0.0 W/m2 RA
00:13 71.8 °F 63.1 °F 29.58 in Calm   2.3 mph 74 % 0.00 in 0.0 W/m2 CLR
00:18 71.7 °F 63.0 °F 29.58 in Calm     74 % 0.00 in 0.0 W/m2 CLR
00:23 71.5 °F 62.8 °F 29.58 in Calm     74 % 0.00 in 0.0 W/m2 CLR
00:28 71.2 °F 62.5 °F 29.59 in Calm     74 % 0.00 in 0.0 W/m2 CLR
00:33 71.1 °F 62.8 °F 29.59 in Calm     75 % 0.00 in 0.0 W/m2 CLR
00:38 71.5 °F 63.2 °F 29.59 in South 0.1 mph 3.5 mph 75 % 0.00 in 0.0 W/m2 CLR
00:43 71.9 °F 63.2 °F 29.59 in SSW 7.4 mph 13.0 mph 74 % 0.00 in 0.0 W/m2 CLR
00:48 72.5 °F 63.4 °F 29.59 in South 6.6 mph 8.1 mph 73 % 0.00 in 0.0 W/m2 CLR
00:53 73.4 °F 63.4 °F 29.58 in SSW 9.8 mph 11.5 mph 71 % 0.00 in 0.0 W/m2 CLR
00:58 73.6 °F 63.2 °F 29.58 in South 13.2 mph 19.6 mph 70 % 0.00 in 0.0 W/m2 CLR
01:03 73.8 °F 63.4 °F 29.58 in SSW 9.5 mph 16.1 mph 70 % 0.00 in 0.0 W/m2 CLR
01:08 73.7 °F 63.3 °F 29.58 in SSE 8.6 mph 12.7 mph 70 % 0.00 in 0.0 W/m2 CLR
01:13 73.6 °F 63.2 °F 29.58 in SW 12.5 mph 19.6 mph 70 % 0.00 in 0.0 W/m2 CLR
01:18 73.6 °F 63.2 °F 29.58 in South 10.2 mph 19.6 mph 70 % 0.00 in 0.0 W/m2 CLR
01:23 73.6 °F 63.2 °F 29.58 in SW 8.8 mph 12.7 mph 70 % 0.00 in 0.0 W/m2 CLR
01:28 73.5 °F 63.1 °F 29.58 in SSW 14.1 mph 21.9 mph 70 % 0.00 in 0.0 W/m2 CLR
01:33 73.6 °F 63.2 °F 29.57 in SSW 5.6 mph 10.4 mph 70 % 0.00 in 0.0 W/m2 CLR
01:38 73.5 °F 63.1 °F 29.57 in SSW 5.9 mph 11.5 mph 70 % 0.00 in 0.0 W/m2 CLR
01:43 73.4 °F 63.0 °F 29.58 in SW 9.2 mph 13.8 mph 70 % 0.00 in 0.0 W/m2 CLR
01:48 73.3 °F 62.9 °F 29.57 in SSW 5.6 mph 9.2 mph 70 % 0.00 in 0.0 W/m2 CLR
01:53 73.4 °F 63.0 °F 29.57 in SSW 11.3 mph 16.1 mph 70 % 0.00 in 0.0 W/m2 CLR
01:58 73.5 °F 63.1 °F 29.57 in SW 10.7 mph 17.3 mph 70 % 0.00 in 0.0 W/m2 CLR
02:03 73.5 °F 63.1 °F 29.57 in SW 8.2 mph 12.7 mph 70 % 0.00 in 0.0 W/m2 CLR
02:08 73.4 °F 63.0 °F 29.57 in WSW 10.0 mph 13.8 mph 70 % 0.00 in 0.0 W/m2 CLR
02:13 73.4 °F 63.0 °F 29.58 in SSW 14.7 mph 20.7 mph 70 % 0.00 in 0.0 W/m2 CLR
02:18 73.5 °F 63.1 °F 29.57 in South 10.2 mph 18.0 mph 70 % 0.00 in 0.0 W/m2 CLR
02:23 73.4 °F 63.0 °F 29.57 in SSW 9.6 mph 20.7 mph 70 % 0.00 in 0.0 W/m2 CLR
02:28 73.3 °F 63.3 °F 29.57 in South 6.8 mph 13.8 mph 71 % 0.00 in 0.0 W/m2 CLR
02:33 73.2 °F 63.2 °F 29.58 in SW 9.1 mph 13.8 mph 71 % 0.00 in 0.0 W/m2 CLR
02:38 73.1 °F 63.1 °F 29.58 in SSW 11.3 mph 18.4 mph 71 % 0.00 in 0.0 W/m2 CLR
02:43 73.0 °F 63.4 °F 29.58 in SSW 12.2 mph 20.0 mph 72 % 0.00 in 0.0 W/m2 CLR
02:48 73.0 °F 63.4 °F 29.58 in SW 7.5 mph 13.0 mph 72 % 0.00 in 0.0 W/m2 CLR
02:53 72.8 °F 63.2 °F 29.58 in SW 6.3 mph 15.0 mph 72 % 0.00 in 0.0 W/m2 CLR
02:58 72.7 °F 63.1 °F 29.58 in SW 5.9 mph 17.3 mph 72 % 0.00 in 0.0 W/m2 CLR
03:03 72.0 °F 60.9 °F 29.58 in West 6.3 mph 12.7 mph 68 % 0.00 in 0.0 W/m2 CLR
03:08 69.7 °F 58.7 °F 29.59 in West 8.1 mph 14.0 mph 68 % 0.00 in 0.0 W/m2 CLR
03:13 68.6 °F 58.0 °F 29.58 in SSW 2.6 mph 2.6 mph 69 % 0.00 in 0.0 W/m2 CLR
03:18 67.8 °F 57.7 °F 29.58 in NW 0.6 mph 5.0 mph 70 % 0.00 in 0.0 W/m2 CLR
03:23 67.4 °F 57.7 °F 29.58 in NNW 5.5 mph 15.0 mph 71 % 0.00 in 0.0 W/m2 CLR
03:29 66.8 °F 57.5 °F 29.57 in NW 2.9 mph 11.5 mph 72 % 0.00 in 0.0 W/m2 CLR
03:34 66.2 °F 57.7 °F 29.59 in NW 2.9 mph 8.0 mph 74 % 0.00 in 0.0 W/m2 CLR
03:39 65.6 °F 57.8 °F 29.58 in North 1.0 mph 4.0 mph 76 % 0.00 in 0.0 W/m2 CLR
03:44 65.0 °F 58.0 °F 29.59 in Calm     78 % 0.00 in 0.0 W/m2 CLR
03:49 64.7 °F 58.0 °F 29.60 in SSW 1.6 mph 3.5 mph 79 % 0.01 in 0.0 W/m2 RA
03:54 64.5 °F 58.2 °F 29.59 in Calm     80 % 0.01 in 0.0 W/m2 RA
03:59 64.1 °F 58.5 °F 29.60 in SW 0.8 mph 3.5 mph 82 % 0.06 in 0.0 W/m2 RA
04:04 63.5 °F 58.6 °F 29.60 in Calm     84 % 0.09 in 0.0 W/m2 RA
04:09 63.1 °F 58.5 °F 29.60 in Calm     85 % 0.10 in 0.0 W/m2 RA
04:14 62.8 °F 58.5 °F 29.59 in Calm     86 % 0.14 in 0.0 W/m2 RA
04:19 62.7 °F 58.8 °F 29.60 in Calm     87 % 0.14 in 0.0 W/m2 RA
04:24 62.5 °F 58.9 °F 29.59 in Calm     88 % 0.14 in 0.0 W/m2
04:29 62.3 °F 59.0 °F 29.60 in Calm     89 % 0.14 in 0.0 W/m2 CLR
04:34 62.1 °F 58.8 °F 29.59 in Calm     89 % 0.14 in 0.0 W/m2 CLR
04:39 62.0 °F 59.0 °F 29.60 in Calm     90 % 0.14 in 0.0 W/m2 CLR
04:44 62.0 °F 59.0 °F 29.59 in Calm     90 % 0.16 in 0.0 W/m2 RA
04:49 61.8 °F 58.8 °F 29.59 in Calm     90 % 0.16 in 0.0 W/m2 RA
04:54 61.9 °F 59.2 °F 29.60 in Calm     91 % 0.17 in 0.0 W/m2 RA
04:59 61.9 °F 59.2 °F 29.60 in Calm     91 % 0.12 in 0.0 W/m2 RA
05:04 61.7 °F 59.0 °F 29.60 in Calm   2.3 mph 91 % 0.08 in 0.0 W/m2
05:09 61.7 °F 59.0 °F 29.60 in Calm     91 % 0.07 in 0.0 W/m2 CLR
05:14 61.6 °F 58.9 °F 29.60 in Calm     91 % 0.04 in 0.0 W/m2 CLR
05:19 61.5 °F 59.2 °F 29.60 in Calm     92 % 0.04 in 0.0 W/m2 CLR
05:24 61.6 °F 59.3 °F 29.60 in Calm     92 % 0.04 in 0.0 W/m2 CLR
05:29 61.5 °F 59.2 °F 29.60 in Calm   1.2 mph 92 % 0.04 in 0.0 W/m2 CLR
05:34 61.4 °F 59.1 °F 29.60 in Calm     92 % 0.04 in 0.0 W/m2 CLR
05:39 61.3 °F 59.0 °F 29.60 in Calm     92 % 0.04 in 0.0 W/m2 CLR
05:44 61.5 °F 59.5 °F 29.60 in Calm     93 % 0.02 in 0.0 W/m2 CLR
05:50 61.4 °F 59.4 °F 29.61 in Calm     93 % 0.01 in 0.0 W/m2 CLR
05:55 61.5 °F 59.4 °F 29.61 in Calm   3.0 mph 93 % 0.00 in 0.0 W/m2 OVC
06:00 61.5 °F 59.5 °F 29.61 in WNW 0.1 mph   93 % 0.00 in 0.0 W/m2 CLR
06:01 61.5 °F 59.5 °F 29.61 in West 0.3 mph 3.5 mph 93 % 0.00 in 0.0 W/m2 CLR
06:06 61.4 °F 59.4 °F 29.62 in WSW 2.6 mph 9.2 mph 93 % 0.00 in 0.0 W/m2 CLR
06:11 61.0 °F 58.7 °F 29.61 in NW 0.7 mph 3.5 mph 92 % 0.00 in 0.0 W/m2 CLR
06:16 60.3 °F 58.0 °F 29.62 in WNW 1.3 mph 3.5 mph 92 % 0.00 in 0.0 W/m2 CLR
06:21 60.2 °F 57.9 °F 29.62 in NW 0.2 mph 4.6 mph 92 % 0.00 in 12.0 W/m2 CLR
06:26 60.3 °F 57.7 °F 29.62 in Calm     91 % 0.00 in 26.0 W/m2 CLR
06:31 60.4 °F 57.8 °F 29.62 in NW 0.9 mph 3.5 mph 91 % 0.00 in 16.0 W/m2 CLR
06:36 60.4 °F 57.8 °F 29.62 in Calm     91 % 0.00 in 16.0 W/m2 CLR
06:41 60.5 °F 57.6 °F 29.62 in Calm     90 % 0.00 in 14.0 W/m2 CLR
06:46 60.5 °F 57.6 °F 29.62 in Calm     90 % 0.00 in 25.0 W/m2 BKN
06:51 60.5 °F 57.6 °F 29.62 in Calm     90 % 0.00 in 12.0 W/m2 OVC
06:56 60.5 °F 57.6 °F 29.62 in Calm     90 % 0.00 in 40.0 W/m2 BKN
07:01 60.7 °F 57.7 °F 29.63 in Calm     90 % 0.00 in 23.0 W/m2 OVC
07:06 60.7 °F 57.7 °F 29.63 in Calm     90 % 0.00 in 25.0 W/m2 OVC
07:07 60.7 °F 57.7 °F 29.63 in Calm     90 % 0.00 in 25.0 W/m2 OVC
07:12 60.6 °F 57.3 °F 29.63 in Calm     89 % 0.00 in 47.0 W/m2 BKN
07:17 60.7 °F 57.7 °F 29.62 in Calm     90 % 0.00 in 51.0 W/m2 BKN
07:22 60.7 °F 57.7 °F 29.63 in Calm     90 % 0.00 in 42.0 W/m2 BKN
07:27 60.6 °F 57.7 °F 29.63 in Calm     90 % 0.00 in 58.0 W/m2 BKN
07:32 60.6 °F 57.7 °F 29.63 in Calm     90 % 0.00 in 88.0 W/m2 SCT
07:37 60.8 °F 57.8 °F 29.63 in NW 0.1 mph 1.2 mph 90 % 0.00 in 90.0 W/m2 SCT
07:42 61.0 °F 57.4 °F 29.63 in Calm     88 % 0.00 in 46.0 W/m2 BKN
07:47 60.8 °F 56.9 °F 29.63 in Calm     87 % 0.00 in 39.0 W/m2 OVC
07:52 60.8 °F 56.6 °F 29.62 in Calm   3.5 mph 86 % 0.00 in 42.0 W/m2 OVC
07:57 61.2 °F 56.7 °F 29.62 in Calm     85 % 0.00 in 44.0 W/m2 OVC
08:03 61.4 °F 55.9 °F 29.62 in Calm   3.5 mph 82 % 0.00 in 46.0 W/m2 OVC
08:08 61.6 °F 54.7 °F 29.62 in NW 4.7 mph 8.1 mph 78 % 0.00 in 58.0 W/m2 OVC
08:13 62.4 °F 54.7 °F 29.63 in NW 0.6 mph 3.5 mph 76 % 0.00 in 181.0 W/m2 BKN
08:18 62.9 °F 53.7 °F 29.63 in NW 5.0 mph 9.2 mph 72 % 0.00 in 214.0 W/m2 FEW
08:23 63.4 °F 52.7 °F 29.62 in West 4.5 mph 11.5 mph 68 % 0.00 in 221.0 W/m2 FEW
08:28 63.2 °F 52.1 °F 29.63 in West 4.2 mph 8.1 mph 67 % 0.00 in 146.0 W/m2 BKN
08:33 63.5 °F 52.3 °F 29.63 in WNW 1.9 mph 3.5 mph 67 % 0.00 in 241.0 W/m2 SCT
08:38 63.7 °F 52.5 °F 29.63 in WNW 4.7 mph 10.4 mph 67 % 0.00 in 348.0 W/m2 CLR
08:43 63.9 °F 52.3 °F 29.63 in West 2.4 mph 9.2 mph 66 % 0.00 in 566.0 W/m2 CLR
08:48 64.4 °F 52.8 °F 29.63 in West 2.5 mph 6.9 mph 66 % 0.00 in 631.0 W/m2 CLR
08:53 64.7 °F 51.8 °F 29.63 in West 3.8 mph 6.9 mph 63 % 0.00 in 610.0 W/m2 CLR
08:58 64.0 °F 52.0 °F 29.63 in Calm     65 % 0.00 in 225.0 W/m2 SCT
09:03 64.1 °F 51.2 °F 29.63 in NNW 5.2 mph 11.5 mph 63 % 0.00 in 204.0 W/m2 BKN
09:08 64.4 °F 51.1 °F 29.63 in WNW 2.0 mph 3.5 mph 62 % 0.00 in 301.0 W/m2 SCT
09:13 64.4 °F 51.1 °F 29.64 in SW 2.0 mph 3.5 mph 62 % 0.00 in 617.0 W/m2 CLR
09:18 64.3 °F 51.4 °F 29.63 in West 0.4 mph 2.0 mph 63 % 0.00 in 587.0 W/m2 CLR
09:23 64.4 °F 51.5 °F 29.64 in WSW 3.1 mph 9.2 mph 63 % 0.00 in 698.0 W/m2 CLR
09:28 64.3 °F 51.4 °F 29.64 in SSW 4.0 mph 6.0 mph 63 % 0.00 in 355.0 W/m2 SCT
09:33 64.3 °F 50.6 °F 29.63 in SW 7.0 mph 10.0 mph 61 % 0.00 in 341.0 W/m2 FEW
09:38 64.7 °F 50.9 °F 29.64 in WNW 3.7 mph 9.2 mph 61 % 0.00 in 350.0 W/m2 SCT
09:43 64.9 °F 51.1 °F 29.64 in West 2.6 mph 9.2 mph 61 % 0.00 in 425.0 W/m2 FEW
09:48 65.5 °F 51.2 °F 29.63 in WSW 1.3 mph 5.8 mph 60 % 0.00 in 448.0 W/m2 CLR
09:53 65.8 °F 52.0 °F 29.64 in NW 3.5 mph 15.0 mph 61 % 0.00 in 376.0 W/m2 SCT
10:03 65.2 °F 51.0 °F 29.64 in SSW 6.5 mph 11.5 mph 60 % 0.00 in 264.0 W/m2 BKN
10:08 64.4 °F 50.7 °F 29.64 in West 4.5 mph 9.2 mph 61 % 0.00 in 299.0 W/m2 BKN
10:13 64.2 °F 50.0 °F 29.64 in West 8.2 mph 11.5 mph 60 % 0.00 in 311.0 W/m2 BKN
10:23 64.1 °F 49.9 °F 29.64 in SW 5.2 mph 11.5 mph 60 % 0.00 in 388.0 W/m2 SCT
10:28 64.1 °F 50.4 °F 29.64 in NW 2.4 mph 6.9 mph 61 % 0.00 in 330.0 W/m2 SCT
10:33 64.3 °F 50.6 °F 29.64 in WNW 2.8 mph 6.9 mph 61 % 0.00 in 374.0 W/m2 SCT
10:38 64.5 °F 51.2 °F 29.64 in WNW 5.1 mph 10.4 mph 62 % 0.00 in 260.0 W/m2 SCT
10:43 64.4 °F 50.2 °F 29.64 in West 11.8 mph 18.0 mph 60 % 0.00 in 179.0 W/m2 BKN
10:44 64.3 °F 50.1 °F 29.64 in West 11.6 mph 18.4 mph 60 % 0.00 in 167.0 W/m2 OVC
10:49 63.5 °F 49.8 °F 29.64 in WSW 4.8 mph 17.3 mph 61 % 0.00 in 183.0 W/m2 OVC
10:54 63.4 °F 50.1 °F 29.64 in WSW 3.4 mph 10.4 mph 62 % 0.00 in 156.0 W/m2 OVC
10:59 63.3 °F 50.1 °F 29.64 in WNW 8.9 mph 15.0 mph 62 % 0.00 in 306.0 W/m2 BKN
11:04 63.5 °F 49.4 °F 29.64 in NNW 6.5 mph 11.5 mph 60 % 0.00 in 304.0 W/m2 BKN
11:09 63.8 °F 49.6 °F 29.65 in West 6.8 mph 17.3 mph 60 % 0.00 in 476.0 W/m2 SCT
11:14 63.8 °F 49.6 °F 29.65 in WSW 7.9 mph 12.7 mph 60 % 0.00 in 434.0 W/m2 SCT
11:19 63.4 °F 49.3 °F 29.65 in West 11.6 mph 19.6 mph 60 % 0.00 in 221.0 W/m2 BKN
11:24 63.0 °F 49.3 °F 29.65 in WNW 7.5 mph 15.0 mph 61 % 0.00 in 388.0 W/m2 BKN
11:29 63.0 °F 49.8 °F 29.64 in WSW 7.1 mph 8.1 mph 62 % 0.00 in 295.0 W/m2 BKN
11:34 63.2 °F 50.0 °F 29.65 in West 8.9 mph 11.5 mph 62 % 0.00 in 448.0 W/m2 SCT
11:39 63.7 °F 50.0 °F 29.64 in WSW 1.1 mph 5.8 mph 61 % 0.00 in 330.0 W/m2 FEW
11:44 63.7 °F 50.4 °F 29.64 in SSW 6.9 mph 13.8 mph 62 % 0.00 in 362.0 W/m2 BKN
11:49 63.8 °F 50.5 °F 29.64 in WSW 5.9 mph 10.4 mph 62 % 0.00 in 439.0 W/m2 SCT
11:54 63.9 °F 50.6 °F 29.64 in WSW 6.9 mph 11.5 mph 62 % 0.00 in 364.0 W/m2 SCT
11:59 63.9 °F 50.6 °F 29.64 in SW 5.2 mph 11.5 mph 62 % 0.00 in 295.0 W/m2 BKN
12:04 63.8 °F 51.0 °F 29.65 in West 5.1 mph 10.4 mph 63 % 0.00 in 202.0 W/m2 OVC
12:09 63.7 °F 50.9 °F 29.65 in WSW 6.6 mph 15.0 mph 63 % 0.00 in 264.0 W/m2 BKN
12:14 63.7 °F 50.9 °F 29.65 in SW 3.6 mph 7.0 mph 63 % 0.00 in 301.0 W/m2 BKN
12:19 63.8 °F 49.2 °F 29.65 in SW 13.4 mph 25.3 mph 59 % 0.00 in 265.0 W/m2 BKN
12:24 63.9 °F 48.4 °F 29.64 in SW 5.2 mph 11.5 mph 57 % 0.00 in 301.0 W/m2 BKN
12:29 64.1 °F 48.1 °F 29.64 in SSW 11.1 mph 13.8 mph 56 % 0.00 in 374.0 W/m2 BKN
12:34 65.3 °F 49.7 °F 29.64 in West 7.4 mph 11.5 mph 57 % 0.00 in 1074.0 W/m2 CLR
12:39 66.5 °F 49.8 °F 29.64 in WNW 9.0 mph 17.3 mph 55 % 0.00 in 1062.0 W/m2 CLR
12:41 66.6 °F 50.4 °F 29.64 in WSW 5.6 mph 11.5 mph 56 % 0.00 in 1062.0 W/m2 CLR
12:46 66.3 °F 48.7 °F 29.64 in WSW 12.1 mph 20.7 mph 53 % 0.00 in 1028.0 W/m2 CLR
12:51 66.3 °F 47.6 °F 29.63 in West 9.3 mph 19.6 mph 51 % 0.00 in 1092.0 W/m2 CLR
12:56 66.8 °F 49.1 °F 29.63 in West 11.5 mph 16.1 mph 53 % 0.00 in 403.0 W/m2 BKN
13:01 66.6 °F 48.9 °F 29.63 in SW 10.7 mph 19.6 mph 53 % 0.00 in 422.0 W/m2 BKN
13:06 66.2 °F 49.1 °F 29.63 in West 8.2 mph 17.3 mph 54 % 0.00 in 422.0 W/m2 BKN
13:11 66.6 °F 47.9 °F 29.63 in WSW 7.0 mph 18.4 mph 51 % 0.00 in 990.0 W/m2 CLR
13:16 67.2 °F 47.4 °F 29.63 in WSW 8.9 mph 17.3 mph 49 % 0.00 in 984.0 W/m2 CLR
13:21 67.0 °F 45.5 °F 29.63 in WSW 13.3 mph 19.6 mph 46 % 0.00 in 991.0 W/m2 CLR
13:26 66.9 °F 44.9 °F 29.63 in WSW 9.9 mph 24.2 mph 45 % 0.00 in 986.0 W/m2 CLR
13:31 66.9 °F 45.4 °F 29.63 in SSW 11.8 mph 21.9 mph 46 % 0.00 in 977.0 W/m2 CLR
13:36 67.4 °F 45.9 °F 29.63 in WNW 8.2 mph 13.8 mph 46 % 0.00 in 1013.0 W/m2 CLR
13:41 67.9 °F 46.3 °F 29.63 in West 7.9 mph 17.3 mph 46 % 0.00 in 993.0 W/m2 CLR
13:46 67.7 °F 45.0 °F 29.63 in WSW 10.3 mph 16.0 mph 44 % 0.00 in 1021.0 W/m2 CLR
13:51 67.9 °F 45.2 °F 29.63 in WNW 13.3 mph 21.0 mph 44 % 0.00 in 979.0 W/m2 CLR
13:57 68.1 °F 44.7 °F 29.63 in WSW 9.7 mph 16.1 mph 43 % 0.00 in 965.0 W/m2 CLR
14:02 68.2 °F 43.6 °F 29.63 in SW 15.0 mph 20.7 mph 41 % 0.00 in 958.0 W/m2 CLR
14:07 68.5 °F 43.9 °F 29.63 in West 12.7 mph 18.4 mph 41 % 0.00 in 956.0 W/m2 CLR
14:12 68.4 °F 43.8 °F 29.63 in WSW 12.4 mph 20.0 mph 41 % 0.00 in 940.0 W/m2 CLR
14:17 69.0 °F 44.3 °F 29.63 in West 11.3 mph 23.0 mph 41 % 0.00 in 933.0 W/m2 CLR
14:22 68.9 °F 43.6 °F 29.63 in South 11.8 mph 19.6 mph 40 % 0.00 in 935.0 W/m2 CLR
14:27 68.5 °F 43.9 °F 29.63 in WSW 13.1 mph 19.6 mph 41 % 0.00 in 928.0 W/m2 CLR
14:32 68.3 °F 44.3 °F 29.63 in SW 13.0 mph 18.4 mph 42 % 0.00 in 930.0 W/m2 CLR
14:37 68.7 °F 44.0 °F 29.63 in WSW 13.8 mph 20.0 mph 41 % 0.00 in 930.0 W/m2 CLR
14:42 68.8 °F 44.1 °F 29.63 in SW 15.0 mph 20.7 mph 41 % 0.00 in 954.0 W/m2 CLR
14:47 68.7 °F 44.7 °F 29.63 in West 8.2 mph 11.5 mph 42 % 0.00 in 967.0 W/m2 CLR
14:52 69.6 °F 45.5 °F 29.64 in SW 18.5 mph 33.4 mph 42 % 0.00 in 984.0 W/m2 CLR
14:57 68.8 °F 44.8 °F 29.64 in SSW 10.1 mph 15.0 mph 42 % 0.00 in 1016.0 W/m2 CLR
15:02 68.3 °F 45.5 °F 29.64 in SSW 7.8 mph 17.3 mph 44 % 0.00 in 598.0 W/m2 FEW
15:07 69.0 °F 43.7 °F 29.65 in SW 19.7 mph 26.5 mph 40 % 0.00 in 847.0 W/m2 CLR
15:12 68.1 °F 41.5 °F 29.65 in SW 16.4 mph 25.3 mph 38 % 0.00 in 842.0 W/m2 CLR
15:17 67.9 °F 42.0 °F 29.65 in WSW 16.1 mph 34.5 mph 39 % 0.00 in 826.0 W/m2 CLR
15:22 67.7 °F 40.5 °F 29.66 in SW 16.2 mph 27.6 mph 37 % 0.00 in 819.0 W/m2 CLR
15:27 67.8 °F 41.3 °F 29.66 in West 13.2 mph 20.7 mph 38 % 0.00 in 814.0 W/m2 CLR
15:32 67.8 °F 40.6 °F 29.66 in SW 8.8 mph 16.1 mph 37 % 0.00 in 789.0 W/m2 CLR
15:37 68.2 °F 42.3 °F 29.66 in SW 13.0 mph 16.1 mph 39 % 0.00 in 777.0 W/m2 CLR
15:42 68.7 °F 42.1 °F 29.66 in West 10.4 mph 17.0 mph 38 % 0.00 in 768.0 W/m2 CLR
15:47 68.2 °F 40.9 °F 29.66 in West 11.7 mph 18.4 mph 37 % 0.00 in 756.0 W/m2 CLR
15:52 67.8 °F 39.9 °F 29.66 in WNW 13.4 mph 21.9 mph 36 % 0.00 in 742.0 W/m2 CLR
15:57 67.8 °F 41.3 °F 29.66 in West 9.7 mph 16.1 mph 38 % 0.00 in 731.0 W/m2 CLR
16:02 68.0 °F 41.4 °F 29.66 in WSW 9.1 mph 23.0 mph 38 % 0.00 in 733.0 W/m2 CLR
16:07 68.5 °F 41.9 °F 29.66 in West 8.2 mph 13.8 mph 38 % 0.00 in 751.0 W/m2 CLR
16:12 68.5 °F 41.2 °F 29.66 in WSW 11.9 mph 23.0 mph 37 % 0.00 in 721.0 W/m2 CLR
16:17 67.8 °F 41.3 °F 29.66 in West 14.5 mph 24.2 mph 38 % 0.00 in 378.0 W/m2 SCT
16:22 67.9 °F 42.0 °F 29.66 in WNW 9.9 mph 17.3 mph 39 % 0.00 in 686.0 W/m2 CLR
16:27 68.6 °F 42.6 °F 29.65 in WNW 7.1 mph 18.4 mph 39 % 0.00 in 744.0 W/m2 CLR
16:32 68.7 °F 42.1 °F 29.65 in West 11.3 mph 25.3 mph 38 % 0.00 in 206.0 W/m2 CLR
16:37 68.0 °F 42.1 °F 29.66 in West 8.8 mph 12.7 mph 39 % 0.00 in 258.0 W/m2 BKN
16:42 67.7 °F 41.8 °F 29.66 in West 3.0 mph 17.3 mph 39 % 0.00 in 708.0 W/m2 CLR
16:47 67.7 °F 41.8 °F 29.65 in WSW 9.3 mph 20.7 mph 39 % 0.00 in 211.0 W/m2 FEW
16:52 67.2 °F 41.4 °F 29.65 in SW 11.8 mph 16.1 mph 39 % 0.00 in 605.0 W/m2 BKN
16:57 67.5 °F 42.3 °F 29.66 in SW 7.7 mph 14.0 mph 40 % 0.00 in 160.0 W/m2 FEW
17:02 67.6 °F 42.4 °F 29.66 in SSW 11.4 mph 15.0 mph 40 % 0.00 in 181.0 W/m2 FEW
17:07 67.1 °F 42.0 °F 29.66 in West 9.9 mph 13.8 mph 40 % 0.00 in 163.0 W/m2 BKN
17:12 67.1 °F 42.6 °F 29.66 in SSW 6.7 mph 15.0 mph 41 % 0.00 in 584.0 W/m2 CLR
17:17 67.6 °F 42.4 °F 29.66 in SW 11.3 mph 13.8 mph 40 % 0.00 in 575.0 W/m2 CLR
17:22 67.3 °F 42.1 °F 29.66 in SSW 10.5 mph 19.0 mph 40 % 0.00 in 125.0 W/m2 BKN
17:27 67.3 °F 42.8 °F 29.66 in SSW 6.5 mph 13.8 mph 41 % 0.00 in 541.0 W/m2 BKN
17:32 67.8 °F 42.6 °F 29.66 in WNW 11.0 mph 13.8 mph 40 % 0.00 in 446.0 W/m2 CLR
17:37 68.3 °F 43.0 °F 29.66 in West 9.9 mph 12.7 mph 40 % 0.00 in 436.0 W/m2 CLR
17:43 68.5 °F 41.9 °F 29.66 in WSW 12.7 mph 28.8 mph 38 % 0.00 in 146.0 W/m2 FEW
17:48 68.3 °F 41.7 °F 29.66 in WSW 1.7 mph 17.3 mph 38 % 0.00 in 107.0 W/m2 BKN
17:53 67.9 °F 41.3 °F 29.66 in SW 5.0 mph 15.0 mph 38 % 0.00 in 142.0 W/m2 BKN
17:57 67.7 °F 41.2 °F 29.66 in West 8.2 mph 11.5 mph 38 % 0.00 in 120.0 W/m2 BKN
18:03 67.5 °F 41.0 °F 29.66 in WSW 9.0 mph 12.7 mph 38 % 0.00 in 84.0 W/m2 BKN
18:08 67.4 °F 40.9 °F 29.67 in West 13.5 mph 18.4 mph 38 % 0.00 in 58.0 W/m2 OVC
18:13 67.3 °F 40.8 °F 29.67 in West 10.7 mph 23.0 mph 38 % 0.00 in 72.0 W/m2 OVC
18:18 67.3 °F 40.8 °F 29.67 in West 13.7 mph 25.3 mph 38 % 0.00 in 123.0 W/m2 BKN
18:23 67.5 °F 41.0 °F 29.67 in West 5.8 mph 15.0 mph 38 % 0.00 in 183.0 W/m2 FEW
18:28 67.8 °F 40.6 °F 29.67 in SSW 4.4 mph 8.1 mph 37 % 0.00 in 195.0 W/m2 CLR
18:33 67.8 °F 39.9 °F 29.68 in WSW 8.1 mph 17.3 mph 36 % 0.00 in 95.0 W/m2 FEW
18:38 67.6 °F 39.7 °F 29.68 in WNW 8.2 mph 11.5 mph 36 % 0.00 in 100.0 W/m2 BKN
18:43 67.4 °F 40.2 °F 29.68 in West 2.6 mph 6.0 mph 37 % 0.00 in 197.0 W/m2 FEW
18:48 67.5 °F 41.0 °F 29.68 in West 6.6 mph 13.8 mph 38 % 0.00 in 127.0 W/m2 CLR
18:53 67.6 °F 41.1 °F 29.69 in West 4.8 mph 9.2 mph 38 % 0.00 in 165.0 W/m2 CLR
18:58 67.5 °F 41.0 °F 29.69 in WSW 5.8 mph 10.4 mph 38 % 0.00 in 65.0 W/m2 FEW
19:03 67.1 °F 39.9 °F 29.69 in West 6.5 mph 10.4 mph 37 % 0.00 in 56.0 W/m2 BKN
19:08 66.8 °F 39.7 °F 29.70 in West 7.2 mph 11.5 mph 37 % 0.00 in 54.0 W/m2 SCT
19:13 66.5 °F 39.4 °F 29.69 in WNW 3.1 mph 7.0 mph 37 % 0.00 in 53.0 W/m2 SCT
19:18 66.4 °F 39.3 °F 29.70 in West 6.2 mph 15.0 mph 37 % 0.00 in 30.0 W/m2 BKN
19:23 66.2 °F 38.4 °F 29.70 in WSW 8.0 mph 13.8 mph 36 % 0.00 in 28.0 W/m2 BKN
19:28 66.1 °F 38.4 °F 29.70 in WNW 6.4 mph 10.4 mph 36 % 0.00 in 21.0 W/m2 BKN
19:33 66.0 °F 38.3 °F 29.71 in West 3.9 mph 11.5 mph 36 % 0.00 in 19.0 W/m2 BKN
19:38 65.8 °F 38.8 °F 29.71 in WNW 1.9 mph 5.0 mph 37 % 0.00 in 9.0 W/m2 OVC
19:43 65.7 °F 38.7 °F 29.71 in WNW 5.4 mph 10.4 mph 37 % 0.00 in 5.0 W/m2 OVC
19:48 65.5 °F 38.5 °F 29.71 in West 8.7 mph 11.5 mph 37 % 0.00 in 5.0 W/m2 OVC
19:53 65.4 °F 38.4 °F 29.72 in NW 6.1 mph 11.5 mph 37 % 0.00 in 5.0 W/m2 BKN
19:58 65.4 °F 38.4 °F 29.72 in West 5.9 mph 11.5 mph 37 % 0.00 in 0.0 W/m2 CLR
20:03 65.2 °F 37.6 °F 29.73 in West 2.0 mph 8.1 mph 36 % 0.00 in 0.0 W/m2 CLR
20:08 65.1 °F 38.2 °F 29.73 in West 1.6 mph 6.0 mph 37 % 0.00 in 0.0 W/m2 CLR
20:13 64.9 °F 37.3 °F 29.73 in WNW 1.6 mph 6.9 mph 36 % 0.00 in 0.0 W/m2 CLR
20:18 64.8 °F 37.2 °F 29.73 in WNW 3.4 mph 6.9 mph 36 % 0.00 in 0.0 W/m2 CLR
20:23 64.7 °F 37.8 °F 29.73 in WNW 1.7 mph 3.5 mph 37 % 0.00 in 0.0 W/m2 CLR
20:24 64.7 °F 37.1 °F 29.74 in WNW 2.1 mph 6.9 mph 36 % 0.00 in 0.0 W/m2 CLR
20:29 64.6 °F 37.0 °F 29.74 in WNW 8.4 mph 19.0 mph 36 % 0.00 in 0.0 W/m2 CLR
20:34 64.7 °F 37.1 °F 29.74 in NW 8.9 mph 12.0 mph 36 % 0.00 in 0.0 W/m2 CLR
20:39 64.6 °F 37.0 °F 29.74 in WSW 3.6 mph 12.7 mph 36 % 0.00 in 0.0 W/m2 CLR
20:44 64.5 °F 36.9 °F 29.74 in WNW 7.1 mph 11.5 mph 36 % 0.00 in 0.0 W/m2 CLR
20:49 64.2 °F 36.7 °F 29.74 in WNW 2.4 mph 9.2 mph 36 % 0.00 in 0.0 W/m2 CLR
20:54 64.0 °F 37.2 °F 29.75 in WNW 6.9 mph 11.5 mph 37 % 0.00 in 0.0 W/m2 CLR
20:59 63.6 °F 37.5 °F 29.75 in NW 2.9 mph 4.0 mph 38 % 0.00 in 0.0 W/m2 CLR
21:04 63.4 °F 37.3 °F 29.75 in WNW 3.8 mph 9.2 mph 38 % 0.00 in 0.0 W/m2 CLR
21:09 63.3 °F 37.2 °F 29.76 in WNW 2.0 mph 11.5 mph 38 % 0.00 in 0.0 W/m2 CLR
21:14 63.1 °F 37.1 °F 29.76 in West 7.7 mph 9.2 mph 38 % 0.00 in 0.0 W/m2 CLR
21:19 63.0 °F 37.0 °F 29.76 in WNW 0.6 mph 3.5 mph 38 % 0.00 in 0.0 W/m2 CLR
21:24 62.9 °F 36.9 °F 29.76 in WNW 3.5 mph 10.4 mph 38 % 0.00 in 0.0 W/m2 CLR
21:29 62.9 °F 36.9 °F 29.77 in NW 1.2 mph 5.8 mph 38 % 0.00 in 0.0 W/m2 CLR
21:34 62.8 °F 37.5 °F 29.77 in WNW 1.8 mph 6.9 mph 39 % 0.00 in 0.0 W/m2 CLR
21:39 62.8 °F 37.5 °F 29.77 in WNW 1.5 mph 5.8 mph 39 % 0.00 in 0.0 W/m2 CLR
21:45 62.7 °F 37.4 °F 29.77 in WNW 1.6 mph 3.5 mph 39 % 0.00 in 0.0 W/m2 CLR
21:49 62.7 °F 37.4 °F 29.78 in West 1.9 mph 3.5 mph 39 % 0.00 in 0.0 W/m2 CLR
21:55 62.5 °F 37.2 °F 29.78 in West 0.8 mph 3.5 mph 39 % 0.00 in 0.0 W/m2 CLR
22:00 62.4 °F 37.7 °F 29.78 in Calm   2.3 mph 40 % 0.00 in 0.0 W/m2 CLR
22:05 62.3 °F 37.7 °F 29.78 in West 1.0 mph 7.0 mph 40 % 0.00 in 0.0 W/m2 CLR
22:10 62.2 °F 38.2 °F 29.78 in Calm   2.0 mph 41 % 0.00 in 0.0 W/m2 CLR
22:15 62.0 °F 38.6 °F 29.79 in Calm     42 % 0.00 in 0.0 W/m2 CLR
22:20 61.8 °F 38.4 °F 29.79 in Calm     42 % 0.00 in 0.0 W/m2 CLR
22:25 61.6 °F 38.2 °F 29.79 in Calm   2.0 mph 42 % 0.00 in 0.0 W/m2 CLR
22:30 61.5 °F 38.8 °F 29.79 in Calm     43 % 0.00 in 0.0 W/m2 CLR
22:35 61.4 °F 38.1 °F 29.79 in Calm     42 % 0.00 in 0.0 W/m2 CLR
22:40 61.2 °F 38.5 °F 29.79 in Calm   2.0 mph 43 % 0.00 in 0.0 W/m2 CLR
22:45 61.0 °F 38.9 °F 29.80 in Calm     44 % 0.00 in 0.0 W/m2 CLR
22:50 61.0 °F 38.9 °F 29.80 in West 1.2 mph 5.8 mph 44 % 0.00 in 0.0 W/m2 CLR
22:55 60.9 °F 38.8 °F 29.80 in West 0.4 mph 3.5 mph 44 % 0.00 in 0.0 W/m2 CLR
23:00 60.9 °F 38.8 °F 29.80 in Calm     44 % 0.00 in 0.0 W/m2 CLR
23:05 60.8 °F 39.3 °F 29.80 in Calm     45 % 0.00 in 0.0 W/m2 CLR
23:10 60.7 °F 38.6 °F 29.80 in West 0.2 mph 2.3 mph 44 % 0.00 in 0.0 W/m2 CLR
23:15 60.6 °F 39.1 °F 29.80 in Calm     45 % 0.00 in 0.0 W/m2 CLR
23:20 60.5 °F 39.0 °F 29.80 in West 0.2 mph 2.3 mph 45 % 0.00 in 0.0 W/m2 CLR
23:25 60.3 °F 39.4 °F 29.80 in Calm     46 % 0.00 in 0.0 W/m2 CLR
23:30 60.2 °F 39.3 °F 29.80 in Calm     46 % 0.00 in 0.0 W/m2 CLR
23:35 60.1 °F 39.2 °F 29.80 in Calm     46 % 0.00 in 0.0 W/m2 CLR
23:40 60.0 °F 39.7 °F 29.80 in Calm     47 % 0.00 in 0.0 W/m2 CLR
23:45 59.9 °F 39.6 °F 29.80 in Calm     47 % 0.00 in 0.0 W/m2 CLR
23:50 59.8 °F 39.5 °F 29.80 in West 0.1 mph 1.2 mph 47 % 0.00 in 0.0 W/m2 CLR
23:55 59.8 °F 39.5 °F 29.80 in West 0.9 mph 3.5 mph 47 % 0.00 in 0.0 W/m2 CLR
Air Products Campus Weather
Compliments of Weather Underground - 3.5 mb